Time;durP1;ratioP1;P1;durP2;ratioP2;P2;SDS_P1;SDS_P2;PMS_P1;PMS_P2;Temp;Humidity;BMP_temperature;BMP_pressure;BME280_temperature;BME280_humidity;BME280_pressure;Samples;Min_cycle;Max_cycle;Signal;HPM_P1;HPM_P2
2023/02/02 04:25:53;;;;;;;1.80;0.70;;;;;;;0.75;84.81;94937.23;104522;1305;558671;-66
2023/02/02 04:28:25;;;;;;;0.90;0.80;;;;;;;0.68;85.21;94939.25;106037;1286;174225;-66
2023/02/02 04:30:55;;;;;;;2.80;0.70;;;;;;;0.57;84.12;94939.85;106211;1286;22682;-66
2023/02/02 04:33:25;;;;;;;5.20;4.20;;;;;;;0.51;84.06;94940.66;106515;1282;22522;-66
2023/02/02 04:35:53;;;;;;;5.00;1.90;;;;;;;0.49;84.24;94934.75;106225;1282;22643;-67
2023/02/02 04:38:22;;;;;;;13.40;5.70;;;;;;;0.41;83.68;94940.20;106247;1282;22538;-67
2023/02/02 04:40:51;;;;;;;43.90;20.00;;;;;;;0.34;83.75;94947.08;106136;1283;22530;-66
2023/02/02 04:43:19;;;;;;;42.40;20.90;;;;;;;0.33;83.70;94950.70;106439;1283;22525;-65
2023/02/02 04:45:47;;;;;;;74.00;37.20;;;;;;;0.34;83.90;94934.27;106205;1283;25705;-65
2023/02/02 04:48:15;;;;;;;18.90;10.70;;;;;;;0.36;83.62;94940.34;106209;1282;24252;-65
2023/02/02 04:50:43;;;;;;;26.60;19.10;;;;;;;0.35;82.55;94945.34;106124;1282;22534;-65
2023/02/02 04:53:11;;;;;;;4.00;2.70;;;;;;;0.36;82.26;94929.27;106102;1282;25520;-65
2023/02/02 04:55:39;;;;;;;11.60;8.50;;;;;;;0.37;81.28;94921.85;106103;1282;22570;-65
2023/02/02 04:58:08;;;;;;;3.30;2.40;;;;;;;0.38;81.26;94925.48;106098;1282;22553;-65
2023/02/02 05:00:36;;;;;;;4.60;3.20;;;;;;;0.39;80.58;94928.61;106171;1282;24196;-65
2023/02/02 05:03:04;;;;;;;7.20;5.20;;;;;;;0.41;80.54;94926.90;106174;1282;25367;-65
2023/02/02 05:05:32;;;;;;;4.90;1.40;;;;;;;0.40;80.77;94913.39;106212;1283;25220;-65
2023/02/02 05:08:00;;;;;;;5.60;3.60;;;;;;;0.39;80.64;94923.59;106140;1282;25492;-65
2023/02/02 05:10:30;;;;;;;3.10;1.60;;;;;;;0.38;80.20;94933.27;106121;1282;24217;-65
2023/02/02 05:12:58;;;;;;;1.50;1.40;;;;;;;0.40;80.24;94923.09;106187;1282;22547;-65
2023/02/02 05:15:27;;;;;;;3.00;1.70;;;;;;;0.45;79.38;94933.51;106088;1282;22523;-65
2023/02/02 05:17:55;;;;;;;2.90;1.60;;;;;;;0.50;79.51;94940.30;106112;1282;22554;-65
2023/02/02 05:20:23;;;;;;;11.40;6.00;;;;;;;0.52;79.40;94935.65;106122;1282;25488;-65
2023/02/02 05:22:51;;;;;;;3.60;2.00;;;;;;;0.52;79.34;94955.71;106139;1283;24389;-65
2023/02/02 05:25:19;;;;;;;7.80;5.80;;;;;;;0.54;79.13;94972.00;106109;1283;22871;-65
2023/02/02 05:27:47;;;;;;;4.70;2.00;;;;;;;0.55;78.97;94959.73;106110;1283;23150;-65
2023/02/02 05:30:16;;;;;;;1.60;1.10;;;;;;;0.57;78.89;94956.30;106119;1283;22534;-65
2023/02/02 05:32:44;;;;;;;2.90;1.40;;;;;;;0.58;79.18;94959.06;106126;1283;24272;-65
2023/02/02 05:35:12;;;;;;;1.70;1.30;;;;;;;0.56;78.79;94965.28;106118;1283;24259;-65
2023/02/02 05:37:43;;;;;;;3.50;1.80;;;;;;;0.55;77.73;94968.22;106170;1283;22662;-65
2023/02/02 05:40:12;;;;;;;3.10;1.70;;;;;;;0.52;78.16;94964.55;106442;1283;22527;-65
2023/02/02 05:42:40;;;;;;;2.50;1.50;;;;;;;0.47;79.04;94965.19;106326;1283;22653;-65
2023/02/02 05:45:09;;;;;;;5.40;1.20;;;;;;;0.47;78.95;94973.16;106124;1283;22646;-65
2023/02/02 05:47:37;;;;;;;4.50;2.20;;;;;;;0.47;79.32;94961.20;106187;1283;22822;-65
2023/02/02 05:50:05;;;;;;;4.10;2.00;;;;;;;0.46;79.43;94948.91;106148;1277;22544;-65
2023/02/02 05:52:36;;;;;;;5.30;2.10;;;;;;;0.45;79.59;94956.17;106199;1283;25491;-65
2023/02/02 05:55:04;;;;;;;1.50;1.40;;;;;;;0.45;79.25;94958.95;106161;1283;22543;-65
2023/02/02 05:57:32;;;;;;;2.90;1.20;;;;;;;0.46;79.15;94958.08;106226;1283;24317;-65
2023/02/02 06:00:01;;;;;;;3.00;1.70;;;;;;;0.47;79.16;94958.79;106127;1283;25356;-65
2023/02/02 06:02:39;;;;;;;2.10;1.30;;;;;;;0.48;79.34;94955.34;106320;1283;22523;-65
2023/02/02 06:05:07;;;;;;;3.20;1.80;;;;;;;0.47;78.99;94952.73;106177;1283;24149;-66
2023/02/02 06:07:35;;;;;;;2.40;1.60;;;;;;;0.48;79.22;94956.04;106103;1283;22530;-66
2023/02/02 06:10:04;;;;;;;3.40;2.00;;;;;;;0.46;79.59;94961.20;106151;1283;25249;-65
2023/02/02 06:12:32;;;;;;;5.30;2.60;;;;;;;0.45;80.06;94957.20;106428;1278;25376;-70
2023/02/02 06:15:00;;;;;;;2.70;2.50;;;;;;;0.42;80.39;94951.48;106553;1279;23107;-69
2023/02/02 06:17:29;;;;;;;3.60;2.40;;;;;;;0.40;80.33;94954.58;106925;1275;22538;-70
2023/02/02 06:19:57;;;;;;;2.30;1.70;;;;;;;0.41;79.82;94960.80;106857;1275;22528;-71
2023/02/02 06:22:25;;;;;;;6.70;3.50;;;;;;;0.43;80.10;94964.13;106561;1275;22657;-66
2023/02/02 06:24:53;;;;;;;6.20;3.80;;;;;;;0.40;80.53;94972.91;106648;1275;25355;-69
2023/02/02 06:27:21;;;;;;;3.20;2.40;;;;;;;0.36;81.01;94978.24;106587;1275;22567;-73
2023/02/02 06:29:49;;;;;;;4.60;2.90;;;;;;;0.36;81.16;94989.83;106504;1275;22665;-69
2023/02/02 06:32:18;;;;;;;6.00;3.50;;;;;;;0.33;81.63;94987.88;106772;1275;22756;-71
2023/02/02 06:34:46;;;;;;;4.80;2.60;;;;;;;0.29;82.16;94990.44;106616;1275;22581;-68
2023/02/02 06:37:14;;;;;;;5.90;3.10;;;;;;;0.27;82.51;94991.80;106667;1275;22765;-67
2023/02/02 06:39:42;;;;;;;3.30;2.60;;;;;;;0.28;82.57;94996.31;106694;1275;24371;-71
2023/02/02 06:42:10;;;;;;;5.00;2.40;;;;;;;0.27;82.46;95003.05;106619;1275;22520;-68
2023/02/02 06:44:48;;;;;;;4.20;2.40;;;;;;;0.26;82.35;95002.86;106565;1275;22528;-70
2023/02/02 06:47:16;;;;;;;2.40;1.90;;;;;;;0.24;82.43;94992.80;106612;1275;23940;-70
2023/02/02 06:49:44;;;;;;;4.30;2.70;;;;;;;0.21;82.48;94997.26;106959;1275;22520;-69
2023/02/02 06:52:12;;;;;;;5.90;3.00;;;;;;;0.19;82.65;94999.48;106721;1275;22622;-69
2023/02/02 06:54:40;;;;;;;5.30;3.50;;;;;;;0.18;82.64;95003.64;106682;1275;22517;-70
2023/02/02 06:57:08;;;;;;;8.30;4.10;;;;;;;0.19;82.78;95002.60;106777;1275;24374;-69
2023/02/02 06:59:37;;;;;;;3.80;2.40;;;;;;;0.20;82.89;95000.38;106636;1275;22662;-64
2023/02/02 07:02:07;;;;;;;3.40;2.10;;;;;;;0.19;83.05;95004.68;106653;1275;22519;-66
2023/02/02 07:04:36;;;;;;;18.00;11.50;;;;;;;0.24;83.10;94999.89;106719;1275;22635;-66
2023/02/02 07:07:04;;;;;;;110.20;64.80;;;;;;;0.28;83.59;95003.57;106718;1275;25396;-71
2023/02/02 07:09:33;;;;;;;41.90;25.60;;;;;;;0.30;84.01;95006.54;106639;1275;22552;-66
2023/02/02 07:12:01;;;;;;;84.70;56.00;;;;;;;0.33;83.84;95005.52;106691;1275;25609;-67
2023/02/02 07:14:29;;;;;;;20.60;14.80;;;;;;;0.36;83.92;95010.77;106770;1275;25217;-70
2023/02/02 07:16:57;;;;;;;15.30;10.70;;;;;;;0.39;83.93;95010.63;106581;1275;24022;-66
2023/02/02 07:19:25;;;;;;;8.10;5.80;;;;;;;0.42;83.61;95008.75;106655;1275;25255;-66
2023/02/02 07:21:54;;;;;;;2.30;2.10;;;;;;;0.43;83.18;95009.61;106695;1275;22531;-64
2023/02/02 07:24:22;;;;;;;14.80;8.90;;;;;;;0.47;83.08;95009.65;106717;1275;25476;-68
2023/02/02 07:26:50;;;;;;;6.20;4.10;;;;;;;0.56;83.41;95005.77;106640;1275;24747;-68
2023/02/02 07:29:18;;;;;;;9.10;6.20;;;;;;;0.64;82.98;95006.03;106583;1275;22527;-68
2023/02/02 07:31:46;;;;;;;18.60;13.60;;;;;;;0.77;82.88;95010.31;106668;1254;22634;-69
2023/02/02 07:34:14;;;;;;;12.20;7.60;;;;;;;0.85;82.62;95014.88;106647;1275;25388;-68
2023/02/02 07:36:42;;;;;;;9.70;5.80;;;;;;;0.88;82.42;95017.50;106634;1275;23939;-64
2023/02/02 07:39:11;;;;;;;30.50;22.70;;;;;;;0.82;82.17;95030.26;106614;1275;24089;-68
2023/02/02 07:41:39;;;;;;;12.40;8.90;;;;;;;0.71;82.57;95031.72;106668;1275;22525;-65
2023/02/02 07:44:15;;;;;;;10.40;7.40;;;;;;;0.65;83.00;95038.58;106944;1275;25232;-69
2023/02/02 07:46:44;;;;;;;13.70;8.90;;;;;;;0.61;83.19;95045.63;106762;1275;25406;-68
2023/02/02 07:49:16;;;;;;;9.20;6.30;;;;;;;0.58;83.39;95052.33;106703;1275;22528;-64
2023/02/02 07:51:46;;;;;;;6.90;4.00;;;;;;;0.52;83.78;95057.83;106657;1275;22720;-69
2023/02/02 07:54:15;;;;;;;3.10;2.70;;;;;;;0.53;84.11;95056.79;106672;1275;22527;-68
2023/02/02 07:56:43;;;;;;;5.20;3.60;;;;;;;0.56;84.30;95059.77;106575;1275;22633;-64
2023/02/02 07:59:12;;;;;;;29.30;21.20;;;;;;;0.55;84.43;95059.41;106601;1269;25274;-67
2023/02/02 08:01:40;;;;;;;3.40;3.10;;;;;;;0.59;84.75;95064.82;106480;1276;22576;-66
2023/02/02 08:04:09;;;;;;;2.90;2.40;;;;;;;0.66;85.07;95068.54;106979;1276;25237;-65
2023/02/02 08:06:39;;;;;;;7.40;4.60;;;;;;;0.77;85.03;95068.48;106743;1276;25403;-67
2023/02/02 08:09:08;;;;;;;29.90;18.50;;;;;;;0.94;85.37;95070.89;109562;1268;22640;-72
2023/02/02 08:11:37;;;;;;;4.90;3.40;;;;;;;1.03;85.26;95074.11;106642;1275;22523;-72
2023/02/02 08:14:06;;;;;;;23.50;17.60;;;;;;;1.11;84.80;95075.39;106650;1276;22514;-69
2023/02/02 08:16:34;;;;;;;6.60;3.80;;;;;;;1.15;84.80;95072.13;106672;1275;22633;-68
2023/02/02 08:19:03;;;;;;;50.40;36.80;;;;;;;1.28;85.15;95071.38;106647;1276;22468;-70
2023/02/02 08:21:33;;;;;;;4.00;2.10;;;;;;;1.32;84.46;95080.08;106641;1276;25359;-67
2023/02/02 08:24:01;;;;;;;7.70;5.30;;;;;;;1.37;84.36;95083.23;106667;1275;22775;-70
2023/02/02 08:26:30;;;;;;;10.50;8.40;;;;;;;1.45;84.34;95084.34;106719;1275;23928;-68
2023/02/02 08:29:02;;;;;;;2.90;1.60;;;;;;;1.64;84.35;95083.98;106718;1275;24289;-69
2023/02/02 08:31:38;;;;;;;2.60;2.10;;;;;;;1.80;83.84;95085.83;106500;1276;25436;-70
2023/02/02 08:34:06;;;;;;;3.90;3.20;;;;;;;1.86;83.34;95084.13;106932;1275;22546;-70
2023/02/02 08:36:35;;;;;;;1.60;1.50;;;;;;;1.78;83.11;95082.52;106469;1275;26650;-70
2023/02/02 08:39:06;;;;;;;1.60;1.50;;;;;;;1.74;82.55;95083.70;106535;1276;24255;-77
2023/02/02 08:41:35;;;;;;;1.70;1.10;;;;;;;1.66;82.06;95087.29;106568;1276;22539;-68
2023/02/02 08:44:05;;;;;;;2.40;2.20;;;;;;;1.65;81.84;95092.31;106591;1275;22520;-71
2023/02/02 08:46:38;;;;;;;3.80;2.40;;;;;;;1.67;81.96;95094.58;106569;1276;22546;-70
2023/02/02 08:49:11;;;;;;;1.60;1.50;;;;;;;1.74;81.94;95098.45;106629;1276;25448;-71
2023/02/02 08:51:39;;;;;;;2.10;1.90;;;;;;;1.73;81.45;95097.05;106650;1276;24284;-66
2023/02/02 08:54:08;;;;;;;0.70;0.70;;;;;;;1.68;81.30;95096.50;106614;1276;24230;-70
2023/02/02 08:56:36;;;;;;;1.70;1.00;;;;;;;1.70;81.20;95104.33;106585;1275;22556;-72
2023/02/02 08:59:04;;;;;;;0.90;0.70;;;;;;;1.77;80.89;95105.40;106572;1263;25336;-72
2023/02/02 09:01:33;;;;;;;2.30;1.70;;;;;;;1.79;80.60;95105.24;106586;1275;22521;-71
2023/02/02 09:04:07;;;;;;;3.00;1.00;;;;;;;1.90;80.65;95100.80;106712;1275;23748;-70
2023/02/02 09:06:38;;;;;;;1.50;1.30;;;;;;;2.01;80.15;95097.08;106593;1275;22636;-72
2023/02/02 09:09:09;;;;;;;6.50;5.90;;;;;;;2.20;80.19;95100.64;106632;1275;23896;-67
2023/02/02 09:11:38;;;;;;;5.30;4.40;;;;;;;2.35;79.78;95101.06;106679;1276;22784;-68
2023/02/02 09:14:07;;;;;;;1.70;1.40;;;;;;;2.46;79.30;95097.65;106652;1275;23143;-70
2023/02/02 09:16:37;;;;;;;2.50;2.10;;;;;;;2.48;78.57;95098.02;106550;1276;22575;-69
2023/02/02 09:19:05;;;;;;;2.40;1.60;;;;;;;2.39;78.33;95105.61;106557;1276;25501;-70
2023/02/02 09:21:35;;;;;;;2.90;2.60;;;;;;;2.33;78.20;95106.10;106611;1275;25341;-66
2023/02/02 09:24:10;;;;;;;0.40;0.40;;;;;;;2.30;78.31;95109.73;106611;1276;22668;-72
2023/02/02 09:26:39;;;;;;;31.80;19.80;;;;;;;2.35;78.36;95107.15;106601;1275;25271;-70
2023/02/02 09:29:11;;;;;;;50.40;28.70;;;;;;;2.53;77.98;95105.84;106678;1275;22840;-67
2023/02/02 09:31:40;;;;;;;68.60;39.40;;;;;;;2.78;77.68;95102.83;106469;1276;22523;-74
2023/02/02 09:34:11;;;;;;;11.00;6.60;;;;;;;2.94;76.42;95101.66;106699;1276;22997;-69
2023/02/02 09:36:40;;;;;;;4.70;3.50;;;;;;;2.96;75.36;95100.78;106530;1276;25274;-67
2023/02/02 09:39:11;;;;;;;2.80;1.60;;;;;;;2.96;75.35;95101.83;106465;1270;22597;-72
2023/02/02 09:41:54;;;;;;;0.50;0.50;;;;;;;2.88;74.88;95103.36;107146;1269;22523;-68
2023/02/02 09:44:45;;;;;;;1.50;1.10;;;;;;;2.78;74.32;95105.24;106676;1270;22783;-66
2023/02/02 09:47:22;;;;;;;15.10;11.30;;;;;;;2.78;74.67;95110.29;106526;1269;22520;-67
2023/02/02 09:50:19;;;;;;;10.90;9.00;;;;;;;2.89;75.27;95111.02;106669;1270;22519;-69
2023/02/02 09:53:12;;;;;;;14.20;10.20;;;;;;;3.05;75.13;95107.59;106479;1276;22535;-67
2023/02/02 09:55:43;;;;;;;1.20;0.50;;;;;;;3.08;74.30;95099.95;106526;1276;22657;-69
2023/02/02 09:58:18;;;;;;;1.20;0.80;;;;;;;2.83;73.84;95095.02;106604;1269;25322;-68
2023/02/02 10:01:09;;;;;;;1.00;0.80;;;;;;;2.65;74.99;95102.94;106684;1276;23875;-68
2023/02/02 10:03:56;;;;;;;0.50;0.50;;;;;;;2.67;75.35;95109.90;106457;1260;24329;-69
2023/02/02 10:06:43;;;;;;;0.60;0.40;;;;;;;2.72;75.22;95108.36;106467;1276;24228;-69
2023/02/02 10:09:30;;;;;;;0.70;0.60;;;;;;;2.75;75.33;95105.77;106589;1276;22517;-71
2023/02/02 10:12:27;;;;;;;0.60;0.60;;;;;;;2.83;74.84;95108.56;106584;1272;22549;-71
2023/02/02 10:15:05;;;;;;;0.40;0.40;;;;;;;2.87;74.33;95112.91;106597;1276;22713;-69
2023/02/02 10:17:46;;;;;;;0.80;0.80;;;;;;;2.92;74.14;95113.46;106699;1276;22533;-69
2023/02/02 10:20:36;;;;;;;9.40;7.60;;;;;;;3.13;74.35;95119.60;106598;1276;25350;-69
2023/02/02 10:23:27;;;;;;;1.70;1.40;;;;;;;3.52;73.31;95112.36;106429;1276;25505;-70
2023/02/02 10:26:02;;;;;;;1.50;1.20;;;;;;;3.84;72.63;95116.36;106627;1276;22627;-71
2023/02/02 10:29:12;;;;;;;3.10;2.80;;;;;;;4.09;72.04;95120.87;106551;1276;24429;-70
2023/02/02 10:31:56;;;;;;;1.10;0.70;;;;;;;4.08;70.48;95117.91;106582;1276;24295;-70
2023/02/02 10:34:40;;;;;;;1.60;1.10;;;;;;;3.94;70.68;95120.71;106628;1276;22526;-70
2023/02/02 10:37:16;;;;;;;1.30;1.20;;;;;;;3.89;70.54;95123.15;106610;1266;25565;-70
2023/02/02 10:40:01;;;;;;;1.50;0.70;;;;;;;3.87;70.35;95124.36;106602;1276;22573;-71
2023/02/02 10:43:44;;;;;;;2.00;0.90;;;;;;;3.63;70.52;95125.06;106617;1276;25430;-70
2023/02/02 10:45:39;;;;;;;1.50;1.00;;;;;;;3.52;70.59;95130.27;106584;1276;24420;-71
2023/02/02 10:48:17;;;;;;;0.90;0.70;;;;;;;3.49;71.63;95128.70;106524;1276;22558;-71
2023/02/02 10:50:58;;;;;;;1.10;1.00;;;;;;;3.40;71.30;95130.43;106572;1276;22792;-70
2023/02/02 10:53:29;;;;;;;3.40;1.30;;;;;;;3.30;71.96;95138.23;106603;1276;22665;-70
2023/02/02 10:56:04;;;;;;;1.40;1.20;;;;;;;3.19;72.18;95141.50;106631;1276;22983;-71
2023/02/02 10:58:51;;;;;;;1.70;1.40;;;;;;;2.98;72.78;95145.61;106605;1276;22550;-71
2023/02/02 11:01:21;;;;;;;2.90;1.60;;;;;;;2.88;72.46;95140.90;106583;1276;22520;-71
2023/02/02 11:06:48;;;;;;;0.70;0.60;;;;;;;2.66;72.41;95140.11;106609;1276;23745;-70
2023/02/02 11:06:51;;;;;;;0.70;0.70;;;;;;;2.68;72.67;95138.02;106588;1276;22532;-70
2023/02/02 11:09:27;;;;;;;3.20;1.10;;;;;;;2.76;72.50;95141.55;106611;1276;22523;-70
2023/02/02 11:12:19;;;;;;;1.30;0.80;;;;;;;2.65;72.49;95142.71;106614;1276;22548;-70
2023/02/02 11:15:00;;;;;;;0.80;0.60;;;;;;;2.60;73.09;95145.47;106638;1276;24205;-70
2023/02/02 11:17:28;;;;;;;2.80;1.30;;;;;;;2.53;72.97;95152.38;106572;1272;22668;-69
2023/02/02 11:19:57;;;;;;;1.30;1.00;;;;;;;2.46;72.96;95149.91;106648;1276;22786;-70
2023/02/02 11:22:37;;;;;;;5.10;2.60;;;;;;;2.33;73.41;95146.71;106576;1276;26551;-71
2023/02/02 11:25:32;;;;;;;1.60;1.00;;;;;;;2.25;73.83;95143.18;106590;1276;22510;-70
2023/02/02 11:28:17;;;;;;;1.30;1.20;;;;;;;2.19;73.94;95148.35;106625;1276;22521;-70
2023/02/02 11:30:50;;;;;;;3.00;2.00;;;;;;;2.06;73.55;95149.85;106622;1276;24350;-70
2023/02/02 11:33:19;;;;;;;1.70;1.20;;;;;;;2.03;73.98;95148.95;106637;1276;22517;-70
2023/02/02 11:36:16;;;;;;;1.90;1.00;;;;;;;2.03;73.91;95151.55;106561;1276;22567;-70
2023/02/02 11:38:44;;;;;;;1.20;0.80;;;;;;;2.15;73.58;95150.94;106601;1276;22646;-70
2023/02/02 11:41:14;;;;;;;1.10;0.80;;;;;;;2.22;73.09;95150.98;106591;1276;22524;-70
2023/02/02 11:43:53;;;;;;;1.00;0.90;;;;;;;2.26;72.75;95153.43;106589;1276;22650;-70
2023/02/02 11:46:29;;;;;;;1.90;1.40;;;;;;;2.33;72.40;95157.48;106579;1276;22523;-70
2023/02/02 11:49:01;;;;;;;2.10;1.60;;;;;;;2.26;72.09;95160.55;106636;1276;25400;-70
2023/02/02 11:51:31;;;;;;;1.80;1.60;;;;;;;2.20;72.70;95161.38;106604;1276;22527;-70
2023/02/02 11:54:21;;;;;;;4.60;2.30;;;;;;;2.15;72.98;95160.31;106619;1276;22611;-70
2023/02/02 11:56:52;;;;;;;1.20;1.00;;;;;;;2.14;73.06;95163.42;106595;1276;25229;-69
2023/02/02 11:59:37;;;;;;;1.40;1.00;;;;;;;2.07;72.99;95167.72;106564;1276;26625;-69
2023/02/02 12:02:27;;;;;;;1.20;1.10;;;;;;;2.03;73.24;95168.02;106605;1276;22521;-69
2023/02/02 12:05:14;;;;;;;1.50;1.10;;;;;;;2.03;73.28;95163.52;106581;1276;22641;-70
2023/02/02 12:07:43;;;;;;;3.40;2.00;;;;;;;2.01;73.18;95160.90;106586;1276;22671;-70
2023/02/02 12:10:35;;;;;;;2.30;1.60;;;;;;;2.00;73.51;95159.34;106599;1276;22550;-69
2023/02/02 12:13:06;;;;;;;3.20;1.70;;;;;;;2.04;73.67;95159.53;106612;1276;22656;-70
2023/02/02 12:16:02;;;;;;;1.60;1.30;;;;;;;2.07;73.70;95164.77;106620;1276;22536;-70
2023/02/02 12:19:09;;;;;;;2.00;1.20;;;;;;;2.10;73.70;95159.76;106543;1276;24413;-70
2023/02/02 12:21:50;;;;;;;2.20;1.50;;;;;;;2.12;73.65;95156.30;106080;1283;24198;-69
2023/02/02 12:24:32;;;;;;;2.90;1.60;;;;;;;2.18;73.68;95156.85;106497;1276;24357;-70
2023/02/02 12:27:07;;;;;;;2.60;1.50;;;;;;;2.19;73.74;95160.16;106621;1276;22520;-70
2023/02/02 12:29:54;;;;;;;5.00;4.50;;;;;;;2.27;73.87;95160.23;106532;1276;25474;-69
2023/02/02 12:32:41;;;;;;;2.70;1.90;;;;;;;2.35;74.24;95161.12;106543;1276;22608;-70
2023/02/02 12:35:47;;;;;;;5.20;2.90;;;;;;;2.47;73.41;95161.89;106584;1276;25955;-69
2023/02/02 12:38:15;;;;;;;5.00;2.90;;;;;;;2.55;73.25;95165.58;106603;1276;24221;-69
2023/02/02 12:41:08;;;;;;;4.50;3.30;;;;;;;2.74;74.17;95162.20;106591;1276;25405;-69
2023/02/02 12:44:13;;;;;;;7.40;5.10;;;;;;;2.90;72.48;95156.71;106634;1276;25471;-70
2023/02/02 12:47:13;;;;;;;3.40;1.50;;;;;;;2.83;71.86;95160.34;106542;1276;25456;-69
2023/02/02 12:49:53;;;;;;;63.00;36.50;;;;;;;2.87;72.26;95158.09;106640;1264;22520;-70
2023/02/02 12:52:42;;;;;;;15.50;10.30;;;;;;;2.80;71.79;95157.53;106604;1266;23011;-70
2023/02/02 12:56:07;;;;;;;3.80;2.90;;;;;;;2.74;71.68;95156.81;106580;1276;25398;-70
2023/02/02 12:58:55;;;;;;;6.80;3.00;;;;;;;2.68;71.51;95157.30;106123;1283;24238;-70
2023/02/02 13:01:29;;;;;;;9.10;5.90;;;;;;;2.59;71.04;95161.43;105971;1283;25294;-70
2023/02/02 13:03:58;;;;;;;2.30;1.50;;;;;;;2.53;71.05;95163.83;106530;1276;22591;-70
2023/02/02 13:06:41;;;;;;;1.80;1.50;;;;;;;2.48;71.45;95169.55;106630;1276;22630;-70
2023/02/02 13:09:19;;;;;;;12.90;5.40;;;;;;;2.43;71.59;95174.53;106565;1276;22557;-70
2023/02/02 13:12:06;;;;;;;5.80;2.50;;;;;;;2.30;71.64;95176.02;106602;1276;22593;-69
2023/02/02 13:14:44;;;;;;;7.30;3.50;;;;;;;2.20;71.64;95184.45;106576;1276;22533;-70
2023/02/02 13:17:40;;;;;;;4.10;1.80;;;;;;;2.08;72.54;95184.04;106665;1276;22531;-70
2023/02/02 13:20:27;;;;;;;1.30;1.10;;;;;;;1.93;71.49;95191.02;106639;1276;22592;-69
2023/02/02 13:23:01;;;;;;;5.00;2.20;;;;;;;1.94;72.04;95186.86;106577;1276;24255;-69
2023/02/02 13:25:36;;;;;;;5.30;2.80;;;;;;;2.00;72.21;95177.90;106601;1276;22626;-69
2023/02/02 13:28:09;;;;;;;4.00;2.00;;;;;;;2.03;72.41;95178.79;106611;1276;22527;-69
2023/02/02 13:30:39;;;;;;;4.70;2.40;;;;;;;2.04;72.56;95180.19;106646;1276;25262;-69
2023/02/02 13:33:22;;;;;;;7.00;3.40;;;;;;;2.07;72.76;95175.35;106645;1276;22627;-69
2023/02/02 13:35:56;;;;;;;4.20;1.90;;;;;;;2.13;72.83;95178.69;106608;1276;22523;-69
2023/02/02 13:38:29;;;;;;;2.40;1.80;;;;;;;2.19;72.69;95175.95;106624;1276;24294;-69
2023/02/02 13:41:02;;;;;;;3.40;2.60;;;;;;;2.16;71.06;95170.19;106616;1276;22601;-69
2023/02/02 13:44:06;;;;;;;7.10;4.90;;;;;;;2.17;71.94;95172.48;106700;1276;24265;-69
2023/02/02 13:46:37;;;;;;;11.00;6.90;;;;;;;2.18;72.90;95162.77;106578;1276;25465;-69
2023/02/02 13:49:22;;;;;;;11.30;7.20;;;;;;;2.20;72.83;95161.73;106673;1276;24252;-70
2023/02/02 13:52:28;;;;;;;7.80;3.50;;;;;;;2.25;71.98;95159.50;106586;1276;22540;-69
2023/02/02 13:55:18;;;;;;;5.00;2.20;;;;;;;2.27;70.89;95161.59;106571;1276;25121;-70
2023/02/02 13:57:59;;;;;;;1.90;1.20;;;;;;;2.24;70.39;95161.06;106535;1276;22538;-69
2023/02/02 14:00:32;;;;;;;2.00;1.40;;;;;;;2.20;70.51;95167.45;106622;1276;22782;-69
2023/02/02 14:03:04;;;;;;;5.00;2.20;;;;;;;2.18;70.27;95166.05;106612;1270;25503;-69
2023/02/02 14:05:35;;;;;;;25.40;10.30;;;;;;;2.21;70.87;95166.23;106528;1276;25716;-69
2023/02/02 14:08:23;;;;;;;3.20;2.00;;;;;;;2.25;70.73;95169.05;106605;1276;25310;-69
2023/02/02 14:10:51;;;;;;;2.90;1.60;;;;;;;2.18;70.45;95163.96;106659;1272;23122;-69
2023/02/02 14:16:39;;;;;;;3.40;1.20;;;;;;;2.02;70.61;95165.24;106452;1276;22741;-69
2023/02/02 14:19:16;;;;;;;3.80;1.50;;;;;;;2.09;71.98;95160.09;106494;1276;22542;-69
2023/02/02 14:21:47;;;;;;;4.20;1.90;;;;;;;2.18;71.50;95157.89;106636;1276;22537;-69
2023/02/02 14:24:24;;;;;;;3.70;2.10;;;;;;;2.23;71.43;95159.13;106556;1276;25377;-69
2023/02/02 14:26:53;;;;;;;3.40;1.90;;;;;;;2.26;71.31;95163.15;106562;1276;22664;-70
2023/02/02 14:29:30;;;;;;;3.50;2.00;;;;;;;2.27;71.05;95160.20;106630;1276;25350;-69
2023/02/02 14:32:05;;;;;;;5.70;2.90;;;;;;;2.28;71.18;95158.65;106560;1276;24478;-69
2023/02/02 14:34:38;;;;;;;5.80;2.50;;;;;;;2.29;71.11;95157.27;106530;1276;22754;-70
2023/02/02 14:37:21;;;;;;;4.20;3.50;;;;;;;2.33;71.70;95157.64;106608;1276;22778;-69
2023/02/02 14:39:57;;;;;;;8.00;5.60;;;;;;;2.35;71.90;95156.45;106512;1276;24261;-69
2023/02/02 14:45:42;;;;;;;11.90;6.40;;;;;;;2.34;71.31;95139.08;106692;1276;22767;-69
2023/02/02 14:48:16;;;;;;;9.30;5.60;;;;;;;2.29;70.80;95139.05;106664;1276;24265;-70
2023/02/02 14:50:49;;;;;;;3.90;2.60;;;;;;;2.20;70.80;95142.98;106606;1276;22516;-69
2023/02/02 14:53:28;;;;;;;2.20;1.60;;;;;;;2.05;70.11;95147.92;106590;1276;22523;-69
2023/02/02 14:56:13;;;;;;;4.10;2.30;;;;;;;1.95;70.56;95147.85;106646;1276;25386;-69
2023/02/02 14:58:50;;;;;;;4.70;1.50;;;;;;;1.92;70.90;95155.27;106625;1276;22530;-69
2023/02/02 15:01:24;;;;;;;4.70;1.30;;;;;;;1.82;70.37;95156.59;106526;1276;24253;-69
2023/02/02 15:03:55;;;;;;;4.30;1.30;;;;;;;1.72;70.32;95158.25;106612;1276;22543;-69
2023/02/02 15:06:33;;;;;;;1.40;1.00;;;;;;;1.59;70.24;95163.33;106575;1276;22632;-69
2023/02/02 15:09:26;;;;;;;2.30;1.40;;;;;;;1.48;71.06;95166.36;106558;1276;22674;-69
2023/02/02 15:11:57;;;;;;;4.80;2.40;;;;;;;1.36;71.04;95170.41;106585;1276;25420;-69
2023/02/02 15:14:34;;;;;;;5.80;3.30;;;;;;;1.25;71.18;95176.17;106598;1276;23918;-69
2023/02/02 15:17:21;;;;;;;3.50;1.10;;;;;;;1.17;71.35;95174.55;106597;1276;22522;-69
2023/02/02 15:20:12;;;;;;;4.00;1.40;;;;;;;1.11;71.70;95171.54;106552;1276;22605;-69
2023/02/02 15:23:03;;;;;;;5.90;3.10;;;;;;;1.06;71.88;95169.92;106780;1276;24223;-69
2023/02/02 15:25:50;;;;;;;10.50;6.50;;;;;;;0.99;73.00;95174.85;106617;1276;25421;-69
2023/02/02 15:28:40;;;;;;;2.80;2.20;;;;;;;0.93;74.11;95183.27;106589;1276;24395;-69
2023/02/02 15:31:21;;;;;;;3.60;1.70;;;;;;;0.87;74.21;95179.91;106566;1276;22550;-69
2023/02/02 15:33:54;;;;;;;2.30;1.70;;;;;;;0.82;74.52;95183.30;106570;1276;24228;-69
2023/02/02 15:36:30;;;;;;;3.50;1.50;;;;;;;0.73;75.89;95189.95;106550;1276;23233;-69
2023/02/02 15:39:02;;;;;;;4.40;1.70;;;;;;;0.64;76.19;95192.79;106546;1276;25277;-69
2023/02/02 15:41:40;;;;;;;5.60;4.30;;;;;;;0.58;77.60;95193.91;106612;1276;22532;-69
2023/02/02 15:44:19;;;;;;;5.80;2.40;;;;;;;0.53;77.48;95195.41;106560;1276;24350;-69
2023/02/02 15:46:48;;;;;;;3.30;1.60;;;;;;;0.54;77.18;95197.50;106669;1276;22554;-69
2023/02/02 15:49:23;;;;;;;3.20;2.10;;;;;;;0.61;77.11;95194.48;106543;1276;22699;-69
2023/02/02 15:52:27;;;;;;;4.60;1.40;;;;;;;0.72;76.94;95201.89;106604;1276;24257;-69
2023/02/02 15:54:58;;;;;;;4.20;1.50;;;;;;;0.86;76.07;95192.89;106571;1276;22541;-69
2023/02/02 15:57:35;;;;;;;4.60;2.30;;;;;;;0.97;75.61;95194.23;106611;1276;25268;-69
2023/02/02 16:00:32;;;;;;;7.20;2.50;;;;;;;1.04;75.41;95200.38;106536;1276;25220;-69
2023/02/02 16:03:03;;;;;;;3.80;1.50;;;;;;;1.12;75.42;95204.63;106607;1276;26494;-69
2023/02/02 16:05:34;;;;;;;5.00;2.10;;;;;;;1.16;75.32;95212.98;106551;1276;22539;-69
2023/02/02 16:08:17;;;;;;;4.00;2.40;;;;;;;1.21;74.87;95213.90;106589;1276;25281;-69
2023/02/02 16:10:49;;;;;;;5.30;1.80;;;;;;;1.23;75.45;95215.30;106593;1276;23919;-69
2023/02/02 16:13:25;;;;;;;5.60;3.90;;;;;;;1.21;75.63;95222.92;106580;1276;25472;-70
2023/02/02 16:15:56;;;;;;;4.50;3.40;;;;;;;1.19;75.35;95221.15;106590;1276;22646;-69
2023/02/02 16:18:25;;;;;;;5.10;1.50;;;;;;;1.17;75.44;95221.14;106564;1276;22540;-69
2023/02/02 16:20:56;;;;;;;3.30;1.70;;;;;;;1.15;75.47;95224.05;106568;1276;22643;-69
2023/02/02 16:23:32;;;;;;;3.00;2.30;;;;;;;1.14;75.16;95225.97;106646;1276;22523;-69
2023/02/02 16:26:03;;;;;;;2.40;0.90;;;;;;;1.14;75.03;95228.73;106630;1276;22517;-69
2023/02/02 16:28:33;;;;;;;3.90;2.20;;;;;;;1.16;75.04;95228.05;106050;1276;755076;-69
2023/02/02 16:31:02;;;;;;;1.80;1.30;;;;;;;1.19;74.88;95228.44;106590;1276;24422;-69
2023/02/02 16:33:33;;;;;;;2.50;1.20;;;;;;;1.23;74.92;95219.98;106622;1276;25350;-69
2023/02/02 16:36:34;;;;;;;2.60;0.80;;;;;;;1.27;74.92;95220.04;106540;1267;22517;-69
2023/02/02 16:39:15;;;;;;;3.80;2.30;;;;;;;1.31;74.63;95215.76;106334;1276;22530;-69
2023/02/02 16:41:46;;;;;;;7.10;3.10;;;;;;;1.32;74.54;95210.38;106565;1276;22601;-69